createdAt,value
2023-05-01T00:00:37.890Z,7.79
2023-05-01T00:03:04.687Z,8.10
2023-05-01T00:05:31.916Z,8.01
2023-05-01T00:07:58.786Z,7.79
2023-05-01T00:10:25.668Z,7.61
2023-05-01T00:12:52.510Z,7.63
2023-05-01T00:15:19.203Z,7.72
2023-05-01T00:17:46.233Z,7.84
2023-05-01T00:20:13.222Z,7.76
2023-05-01T00:22:39.965Z,7.79
2023-05-01T00:25:07.471Z,7.66
2023-05-01T00:27:36.618Z,7.60
2023-05-01T00:30:03.810Z,7.64
2023-05-01T00:32:30.692Z,7.51
2023-05-01T00:34:58.062Z,7.58
2023-05-01T00:37:24.689Z,7.58
2023-05-01T00:39:51.468Z,7.61
2023-05-01T00:42:18.213Z,7.32
2023-05-01T00:44:44.953Z,7.17
2023-05-01T00:47:11.995Z,7.43
2023-05-01T00:49:38.943Z,7.44
2023-05-01T00:52:05.674Z,7.29
2023-05-01T00:54:32.374Z,7.45
2023-05-01T00:57:00.618Z,7.30
2023-05-01T00:59:27.509Z,7.17
2023-05-01T01:01:56.762Z,7.29
2023-05-01T01:04:23.583Z,7.11
2023-05-01T01:06:59.009Z,7.16
2023-05-01T01:09:44.413Z,7.11
2023-05-01T01:12:32.953Z,6.99
2023-05-01T01:15:04.142Z,6.96
2023-05-01T01:17:39.240Z,6.75
2023-05-01T01:20:30.859Z,6.97
2023-05-01T01:23:03.699Z,6.88
2023-05-01T01:25:51.073Z,6.50
2023-05-01T01:28:43.948Z,6.81
2023-05-01T01:31:14.495Z,6.72
2023-05-01T01:33:49.558Z,6.59
2023-05-01T01:36:19.648Z,6.63
2023-05-01T01:39:03.159Z,6.55
2023-05-01T01:41:33.314Z,6.47
2023-05-01T01:45:00.673Z,6.51
2023-05-01T01:47:28.639Z,6.49
2023-05-01T01:49:56.950Z,6.44
2023-05-01T01:52:25.231Z,6.32
2023-05-01T01:54:55.110Z,6.37
2023-05-01T01:57:23.022Z,6.43
2023-05-01T01:59:51.383Z,6.55
2023-05-01T02:02:20.792Z,6.54
2023-05-01T02:04:51.978Z,6.67
2023-05-01T02:07:20.456Z,6.70
2023-05-01T02:09:48.568Z,6.69
2023-05-01T02:12:17.144Z,6.74
2023-05-01T02:14:44.775Z,6.64
2023-05-01T02:17:11.943Z,6.66
2023-05-01T02:19:42.498Z,6.54
2023-05-01T02:22:10.242Z,6.72
2023-05-01T02:24:38.361Z,6.61
2023-05-01T02:27:10.920Z,6.43
2023-05-01T02:29:37.850Z,6.50
2023-05-01T02:32:04.681Z,6.65
2023-05-01T02:34:34.871Z,6.56
2023-05-01T02:37:02.605Z,6.20
2023-05-01T02:39:29.393Z,6.41
2023-05-01T02:41:58.617Z,6.17
2023-05-01T02:44:26.582Z,6.44
2023-05-01T02:46:53.989Z,6.18
2023-05-01T02:49:21.675Z,6.35
2023-05-01T02:51:48.803Z,6.06
2023-05-01T02:54:16.478Z,6.36
2023-05-01T02:56:43.380Z,6.19
2023-05-01T02:59:10.073Z,6.17
2023-05-01T03:01:37.080Z,6.22
2023-05-01T03:04:04.221Z,6.18
2023-05-01T03:06:31.319Z,6.40
2023-05-01T03:08:58.042Z,6.38
2023-05-01T03:11:24.779Z,6.75
2023-05-01T03:13:51.577Z,6.88
2023-05-01T03:16:18.711Z,7.15
2023-05-01T03:18:45.516Z,7.43
2023-05-01T03:21:13.103Z,6.95
2023-05-01T03:23:39.980Z,7.09
2023-05-01T03:26:07.801Z,7.65
2023-05-01T03:28:34.559Z,8.14
2023-05-01T03:31:01.475Z,7.59
2023-05-01T03:33:28.241Z,7.89
2023-05-01T03:36:05.821Z,7.40
2023-05-01T03:38:33.081Z,7.07
2023-05-01T03:41:00.249Z,7.35
2023-05-01T03:43:26.911Z,7.69
2023-05-01T03:45:53.754Z,8.08
2023-05-01T03:48:20.932Z,8.83
2023-05-01T03:50:47.794Z,9.13
2023-05-01T03:53:14.764Z,9.51
2023-05-01T03:55:41.771Z,9.50
2023-05-01T03:58:08.566Z,9.62
2023-05-01T04:00:35.285Z,9.74
2023-05-01T04:03:02.295Z,9.89
2023-05-01T04:05:30.053Z,9.68
2023-05-01T04:07:57.214Z,9.51
2023-05-01T04:10:23.912Z,9.73
2023-05-01T04:12:50.681Z,9.81
2023-05-01T04:15:17.511Z,9.81
2023-05-01T04:17:44.481Z,10.07
2023-05-01T04:20:11.648Z,10.06
2023-05-01T04:22:38.427Z,9.72
2023-05-01T04:25:05.576Z,10.09
2023-05-01T04:27:32.254Z,9.90
2023-05-01T04:29:59.038Z,9.92
2023-05-01T04:32:25.995Z,10.39
2023-05-01T04:34:53.625Z,10.32
2023-05-01T04:37:20.335Z,10.47
2023-05-01T04:39:47.002Z,10.53
2023-05-01T04:42:13.714Z,10.50
2023-05-01T04:44:40.451Z,10.33
2023-05-01T04:47:07.676Z,10.59
2023-05-01T04:49:34.840Z,10.60
2023-05-01T04:52:01.598Z,10.55
2023-05-01T04:54:28.320Z,10.72
2023-05-01T04:56:54.969Z,10.67
2023-05-01T04:59:21.860Z,10.72
2023-05-01T05:01:48.711Z,10.96
2023-05-01T05:04:15.422Z,10.66
2023-05-01T05:06:42.307Z,10.47
2023-05-01T05:09:09.145Z,10.92
2023-05-01T05:11:35.937Z,11.38
2023-05-01T05:14:02.860Z,11.33
2023-05-01T05:16:30.029Z,10.83
2023-05-01T05:18:57.826Z,10.93
2023-05-01T05:21:24.548Z,10.69
2023-05-01T05:23:51.258Z,10.27
2023-05-01T05:26:18.756Z,9.79
2023-05-01T05:28:45.796Z,9.37
2023-05-01T05:31:12.722Z,9.57
2023-05-01T05:33:39.498Z,9.48
2023-05-01T05:36:06.865Z,9.26
2023-05-01T05:38:33.555Z,9.37
2023-05-01T05:41:01.185Z,9.51
2023-05-01T05:43:28.398Z,9.71
2023-05-01T05:45:59.102Z,9.62
2023-05-01T05:48:26.024Z,9.59
2023-05-01T05:50:53.146Z,9.79
2023-05-01T05:53:20.456Z,9.55
2023-05-01T05:55:48.377Z,9.64
2023-05-01T05:58:20.264Z,9.79
2023-05-01T06:00:48.600Z,9.99
2023-05-01T06:03:16.390Z,10.25
2023-05-01T06:05:43.714Z,10.06
2023-05-01T06:08:10.930Z,10.16
2023-05-01T06:10:39.739Z,10.09
2023-05-01T06:13:14.061Z,10.23
2023-05-01T06:15:41.800Z,10.32
2023-05-01T06:18:09.144Z,10.46
2023-05-01T06:20:36.550Z,10.43
2023-05-01T06:23:03.564Z,10.42
2023-05-01T06:25:30.311Z,10.25
2023-05-01T06:27:57.037Z,10.31
2023-05-01T06:30:23.756Z,10.44
2023-05-01T06:32:50.538Z,10.25
2023-05-01T06:35:17.269Z,10.54
2023-05-01T06:37:44.035Z,10.42
2023-05-01T06:40:11.529Z,10.62
2023-05-01T06:42:39.066Z,10.72
2023-05-01T06:45:07.447Z,10.44
2023-05-01T06:47:34.265Z,10.42
2023-05-01T06:50:02.886Z,10.39
2023-05-01T06:52:31.255Z,10.62
2023-05-01T06:54:57.937Z,10.73
2023-05-01T06:57:24.699Z,10.59
2023-05-01T06:59:51.412Z,10.69
2023-05-01T07:02:18.334Z,10.42
2023-05-01T07:04:45.478Z,10.50
2023-05-01T07:07:12.355Z,10.52
2023-05-01T07:09:40.550Z,10.66
2023-05-01T07:12:07.451Z,11.06
2023-05-01T07:14:37.448Z,10.57
2023-05-01T07:17:04.263Z,10.96
2023-05-01T07:19:30.972Z,10.86
2023-05-01T07:21:58.070Z,10.52
2023-05-01T07:24:25.147Z,10.70
2023-05-01T07:26:52.087Z,10.91
2023-05-01T07:29:18.882Z,11.04
2023-05-01T07:31:46.540Z,11.04
2023-05-01T07:34:13.745Z,11.09
2023-05-01T07:36:41.645Z,11.16
2023-05-01T07:39:08.407Z,11.47
2023-05-01T07:41:35.076Z,11.28
2023-05-01T07:44:03.620Z,11.23
2023-05-01T07:46:30.403Z,10.71
2023-05-01T07:48:57.149Z,10.82
2023-05-01T07:51:24.095Z,10.79
2023-05-01T07:53:50.861Z,11.19
2023-05-01T07:56:17.619Z,11.29
2023-05-01T07:58:44.464Z,11.29
2023-05-01T08:01:11.372Z,11.40
2023-05-01T08:03:38.182Z,11.36
2023-05-01T08:06:05.896Z,11.30
2023-05-01T08:08:32.642Z,11.26
2023-05-01T08:10:59.297Z,11.38
2023-05-01T08:13:26.134Z,11.28
2023-05-01T08:15:53.214Z,11.28
2023-05-01T08:18:21.287Z,11.20
2023-05-01T08:20:48.448Z,11.46
2023-05-01T08:23:18.755Z,11.82
2023-05-01T08:25:51.164Z,11.89
2023-05-01T08:28:20.929Z,12.00
2023-05-01T08:30:49.346Z,11.84
2023-05-01T08:33:16.544Z,11.92
2023-05-01T08:35:43.424Z,12.09
2023-05-01T08:38:11.866Z,11.92
2023-05-01T08:40:38.952Z,12.20
2023-05-01T08:43:05.721Z,12.13
2023-05-01T08:45:36.297Z,12.13
2023-05-01T08:48:06.748Z,11.69
2023-05-01T08:50:36.564Z,11.83
2023-05-01T08:53:04.400Z,11.80
2023-05-01T08:55:32.594Z,11.85
2023-05-01T08:57:59.726Z,11.39
2023-05-01T09:00:29.032Z,11.66
2023-05-01T09:02:56.512Z,11.68
2023-05-01T09:05:23.273Z,11.75
2023-05-01T09:07:50.231Z,11.82
2023-05-01T09:10:20.492Z,11.75
2023-05-01T09:12:56.483Z,11.68
2023-05-01T09:15:24.609Z,11.38
2023-05-01T09:17:51.488Z,11.52
2023-05-01T09:20:19.795Z,11.76
2023-05-01T09:22:46.751Z,11.63
2023-05-01T09:25:13.592Z,11.27
2023-05-01T09:27:40.344Z,11.64
2023-05-01T09:30:07.816Z,11.47
2023-05-01T09:32:42.481Z,11.63
2023-05-01T09:35:14.951Z,11.04
2023-05-01T09:37:42.204Z,10.98
2023-05-01T09:40:09.182Z,11.77
2023-05-01T09:42:56.351Z,11.77
2023-05-01T09:45:23.750Z,11.74
2023-05-01T09:47:50.872Z,11.62
2023-05-01T09:50:39.249Z,12.06
2023-05-01T09:53:06.746Z,11.97
2023-05-01T09:55:36.718Z,11.35
2023-05-01T09:58:03.804Z,11.89
2023-05-01T10:00:30.888Z,11.63
2023-05-01T10:02:57.690Z,12.23
2023-05-01T10:05:24.798Z,12.64
2023-05-01T10:08:02.517Z,12.41
2023-05-01T10:10:29.656Z,12.44
2023-05-01T10:12:56.771Z,12.48
2023-05-01T10:15:26.998Z,12.13
2023-05-01T10:17:55.026Z,11.63
2023-05-01T10:20:22.515Z,12.22
2023-05-01T10:22:49.861Z,11.83
2023-05-01T10:25:18.175Z,12.20
2023-05-01T10:27:45.342Z,11.97
2023-05-01T10:30:12.773Z,12.04
2023-05-01T10:32:41.373Z,11.92
2023-05-01T10:35:13.252Z,11.82
2023-05-01T10:37:56.581Z,12.00
2023-05-01T10:40:45.582Z,12.67
2023-05-01T10:43:16.106Z,12.74
2023-05-01T10:46:08.270Z,12.32
2023-05-01T10:48:47.599Z,12.31
2023-05-01T10:51:27.184Z,12.32
2023-05-01T10:54:13.036Z,12.59
2023-05-01T10:56:39.725Z,12.72
2023-05-01T10:59:06.862Z,12.62
2023-05-01T11:01:45.632Z,12.53
2023-05-01T11:04:27.512Z,13.26
2023-05-01T11:07:21.668Z,13.02
2023-05-01T11:09:59.143Z,12.78
2023-05-01T11:12:58.594Z,12.81
2023-05-01T11:15:29.429Z,12.64
2023-05-01T11:17:57.363Z,12.60
2023-05-01T11:20:27.258Z,12.78
2023-05-01T11:22:57.814Z,13.00
2023-05-01T11:25:31.554Z,13.05
2023-05-01T11:27:59.816Z,12.82
2023-05-01T11:30:26.860Z,13.23
2023-05-01T11:32:53.762Z,13.46
2023-05-01T11:35:22.777Z,13.30
2023-05-01T11:37:51.462Z,13.42
2023-05-01T11:40:29.676Z,12.93
2023-05-01T11:43:07.228Z,12.99
2023-05-01T11:45:37.964Z,13.19
2023-05-01T11:48:05.715Z,13.04
2023-05-01T11:50:35.860Z,13.01
2023-05-01T11:53:04.019Z,13.71
2023-05-01T11:55:32.628Z,13.14
2023-05-01T11:57:59.541Z,13.16
2023-05-01T12:00:34.851Z,13.70
2023-05-01T12:03:08.700Z,13.29
2023-05-01T12:05:37.531Z,13.79
2023-05-01T12:08:07.453Z,13.38
2023-05-01T12:10:35.694Z,13.27
2023-05-01T12:13:04.125Z,13.20
2023-05-01T12:15:34.775Z,13.58
2023-05-01T12:18:01.557Z,13.43
2023-05-01T12:20:41.938Z,13.73
2023-05-01T12:23:11.633Z,13.17
2023-05-01T12:25:39.924Z,13.53
2023-05-01T12:28:13.200Z,13.42
2023-05-01T12:30:40.611Z,13.09
2023-05-01T12:33:11.724Z,13.34
2023-05-01T12:35:39.669Z,13.36
2023-05-01T12:38:23.710Z,13.28
2023-05-01T12:40:59.821Z,13.13
2023-05-01T12:43:37.136Z,13.80
2023-05-01T12:46:05.444Z,14.10
2023-05-01T12:48:34.451Z,13.24
2023-05-01T12:51:06.852Z,13.88
2023-05-01T12:53:33.803Z,13.56
2023-05-01T12:56:01.434Z,13.76
2023-05-01T12:58:36.340Z,13.59
2023-05-01T13:01:03.104Z,13.55
2023-05-01T13:03:31.035Z,14.03
2023-05-01T13:06:01.749Z,14.17
2023-05-01T13:08:33.323Z,14.35
2023-05-01T13:11:13.284Z,14.40
2023-05-01T13:13:41.024Z,14.06
2023-05-01T13:16:16.311Z,14.11
2023-05-01T13:18:47.997Z,14.01
2023-05-01T13:21:19.776Z,13.88
2023-05-01T13:24:04.919Z,14.03
2023-05-01T13:26:33.739Z,14.25
2023-05-01T13:29:02.156Z,14.41
2023-05-01T13:31:29.586Z,14.34
2023-05-01T13:33:58.412Z,14.21
2023-05-01T13:36:32.412Z,13.87
2023-05-01T13:38:59.445Z,13.55
2023-05-01T13:41:27.712Z,13.36
2023-05-01T13:43:56.447Z,13.69
2023-05-01T13:46:35.200Z,13.97
2023-05-01T13:49:08.301Z,13.87
2023-05-01T13:51:37.816Z,13.83
2023-05-01T13:54:04.963Z,13.73
2023-05-01T13:56:34.409Z,13.98
2023-05-01T13:59:01.404Z,14.47
2023-05-01T14:01:28.212Z,14.31
2023-05-01T14:04:00.566Z,14.43
2023-05-01T14:06:28.904Z,13.95
2023-05-01T14:08:58.440Z,13.88
2023-05-01T14:11:25.214Z,13.89
2023-05-01T14:13:52.301Z,13.67
2023-05-01T14:16:27.301Z,13.62
2023-05-01T14:18:57.169Z,13.88
2023-05-01T14:21:27.403Z,14.23
2023-05-01T14:23:54.738Z,14.52
2023-05-01T14:26:22.146Z,14.00
2023-05-01T14:28:49.222Z,13.89
2023-05-01T14:31:30.352Z,14.21
2023-05-01T14:34:01.008Z,14.18
2023-05-01T14:36:31.188Z,14.14
2023-05-01T14:38:59.306Z,14.41
2023-05-01T14:41:26.202Z,14.24
2023-05-01T14:43:53.951Z,14.28
2023-05-01T14:46:31.632Z,14.19
2023-05-01T14:48:59.523Z,14.37
2023-05-01T14:51:27.359Z,14.48
2023-05-01T14:53:54.316Z,14.44
2023-05-01T14:56:21.573Z,13.59
2023-05-01T14:58:49.517Z,13.94
2023-05-01T15:01:17.019Z,14.06
2023-05-01T15:03:44.205Z,13.70
2023-05-01T15:06:11.547Z,13.84
2023-05-01T15:08:38.915Z,13.99
2023-05-01T15:11:05.911Z,14.16
2023-05-01T15:13:32.685Z,14.47
2023-05-01T15:15:59.475Z,15.28
2023-05-01T15:18:26.479Z,15.29
2023-05-01T15:20:53.445Z,15.22
2023-05-01T15:23:20.385Z,14.90
2023-05-01T15:25:50.986Z,15.23
2023-05-01T15:28:19.312Z,15.23
2023-05-01T15:30:47.180Z,16.49
2023-05-01T15:33:17.134Z,16.84
2023-05-01T15:35:46.328Z,16.67
2023-05-01T15:38:13.415Z,15.36
2023-05-01T15:40:40.221Z,15.36
2023-05-01T15:43:06.999Z,15.47
2023-05-01T15:45:33.944Z,15.22
2023-05-01T15:48:01.351Z,16.06
2023-05-01T15:50:28.539Z,16.61
2023-05-01T15:52:55.237Z,16.70
2023-05-01T15:55:22.199Z,16.05
2023-05-01T15:57:49.151Z,16.78
2023-05-01T16:00:17.355Z,16.71
2023-05-01T16:02:44.830Z,16.36
2023-05-01T16:05:12.612Z,16.11
2023-05-01T16:07:39.565Z,16.39
2023-05-01T16:10:08.517Z,16.34
2023-05-01T16:12:35.267Z,15.50
2023-05-01T16:15:05.206Z,15.36
2023-05-01T16:17:33.684Z,15.18
2023-05-01T16:20:02.604Z,15.95
2023-05-01T16:22:29.762Z,16.07
2023-05-01T16:24:59.888Z,15.78
2023-05-01T16:27:26.628Z,15.40
2023-05-01T16:29:53.266Z,15.83
2023-05-01T16:32:20.875Z,15.94
2023-05-01T16:34:49.432Z,15.99
2023-05-01T16:37:17.587Z,15.23
2023-05-01T16:39:44.659Z,15.24
2023-05-01T16:42:14.878Z,14.99
2023-05-01T16:44:41.574Z,15.14
2023-05-01T16:47:11.647Z,15.06
2023-05-01T16:49:42.100Z,15.07
2023-05-01T16:52:13.550Z,15.21
2023-05-01T16:54:40.197Z,14.91
2023-05-01T16:57:07.768Z,14.95
2023-05-01T16:59:34.763Z,14.41
2023-05-01T17:02:01.499Z,14.50
2023-05-01T17:04:28.767Z,14.13
2023-05-01T17:06:56.285Z,13.94
2023-05-01T17:09:23.169Z,13.32
2023-05-01T17:11:49.904Z,12.84
2023-05-01T17:14:16.660Z,12.42
2023-05-01T17:16:43.462Z,12.04
2023-05-01T17:19:10.265Z,12.07
2023-05-01T17:21:37.034Z,12.14
2023-05-01T17:24:04.591Z,12.32
2023-05-01T17:26:31.603Z,12.29
2023-05-01T17:28:58.385Z,11.73
2023-05-01T17:31:25.258Z,11.93
2023-05-01T17:33:52.033Z,12.06
2023-05-01T17:36:19.102Z,12.05
2023-05-01T17:38:45.967Z,11.92
2023-05-01T17:41:12.670Z,11.74
2023-05-01T17:43:39.526Z,11.71
2023-05-01T17:46:06.633Z,11.75
2023-05-01T17:48:35.234Z,11.78
2023-05-01T17:51:02.079Z,11.87
2023-05-01T17:53:28.899Z,11.93
2023-05-01T17:55:55.636Z,11.76
2023-05-01T17:58:22.380Z,11.75
2023-05-01T18:00:49.132Z,11.48
2023-05-01T18:03:16.098Z,11.44
2023-05-01T18:05:44.420Z,11.44
2023-05-01T18:08:11.938Z,11.51
2023-05-01T18:10:38.690Z,11.36
2023-05-01T18:13:05.483Z,11.58
2023-05-01T18:15:32.328Z,11.54
2023-05-01T18:18:23.504Z,11.59
2023-05-01T18:20:50.383Z,11.53
2023-05-01T18:23:22.210Z,11.25
2023-05-01T18:25:48.948Z,11.28
2023-05-01T18:28:16.593Z,11.37
2023-05-01T18:30:43.356Z,11.32
2023-05-01T18:33:13.183Z,11.37
2023-05-01T18:35:42.224Z,11.41
2023-05-01T18:38:10.066Z,11.09
2023-05-01T18:40:39.657Z,11.31
2023-05-01T18:43:06.527Z,11.18
2023-05-01T18:45:33.285Z,11.13
2023-05-01T18:48:00.739Z,11.08
2023-05-01T18:50:27.846Z,11.09
2023-05-01T18:52:54.503Z,11.06
2023-05-01T18:55:21.273Z,11.25
2023-05-01T18:57:48.610Z,11.21
2023-05-01T19:00:18.104Z,10.97
2023-05-01T19:02:51.381Z,11.06
2023-05-01T19:05:18.951Z,10.71
2023-05-01T19:07:45.699Z,10.52
2023-05-01T19:10:12.463Z,11.01
2023-05-01T19:12:39.660Z,11.07
2023-05-01T19:15:09.342Z,11.01
2023-05-01T19:17:36.115Z,10.85
2023-05-01T19:20:04.683Z,10.77
2023-05-01T19:22:31.521Z,11.09
2023-05-01T19:25:00.450Z,11.01
2023-05-01T19:27:27.374Z,10.95
2023-05-01T19:29:54.735Z,10.74
2023-05-01T19:32:23.211Z,10.77
2023-05-01T19:34:50.124Z,10.71
2023-05-01T19:37:17.405Z,10.71
2023-05-01T19:39:44.231Z,10.71
2023-05-01T19:42:11.884Z,10.69
2023-05-01T19:44:38.582Z,10.38
2023-05-01T19:47:05.373Z,10.57
2023-05-01T19:49:32.042Z,10.47
2023-05-01T19:51:58.780Z,10.25
2023-05-01T19:54:26.387Z,10.40
2023-05-01T19:56:53.210Z,10.07
2023-05-01T19:59:19.981Z,10.43
2023-05-01T20:01:46.939Z,10.24
2023-05-01T20:04:13.987Z,9.96
2023-05-01T20:06:40.857Z,10.25
2023-05-01T20:09:07.807Z,10.23
2023-05-01T20:11:34.543Z,9.89
2023-05-01T20:14:03.622Z,9.43
2023-05-01T20:16:31.092Z,9.74
2023-05-01T20:18:57.931Z,9.86
2023-05-01T20:21:24.711Z,9.77
2023-05-01T20:23:51.509Z,9.97
2023-05-01T20:26:19.126Z,9.95
2023-05-01T20:28:46.065Z,9.56
2023-05-01T20:31:13.648Z,9.96
2023-05-01T20:33:40.482Z,9.92
2023-05-01T20:36:07.437Z,9.99
2023-05-01T20:38:40.876Z,9.84
2023-05-01T20:41:07.672Z,9.56
2023-05-01T20:43:34.510Z,9.88
2023-05-01T20:46:01.377Z,9.71
2023-05-01T20:48:28.164Z,9.36
2023-05-01T20:50:55.109Z,9.44
2023-05-01T20:53:21.831Z,9.53
2023-05-01T20:55:49.953Z,9.58
2023-05-01T20:58:16.872Z,9.50
2023-05-01T21:00:43.588Z,9.11
2023-05-01T21:03:10.598Z,9.41
2023-05-01T21:05:37.390Z,9.41
2023-05-01T21:08:04.238Z,9.47
2023-05-01T21:10:31.698Z,9.48
2023-05-01T21:12:58.728Z,9.40
2023-05-01T21:15:27.062Z,9.34
2023-05-01T21:17:53.754Z,9.45
2023-05-01T21:20:30.885Z,9.22
2023-05-01T21:22:57.666Z,9.39
2023-05-01T21:25:27.090Z,9.19
2023-05-01T21:27:54.199Z,9.00
2023-05-01T21:30:33.190Z,9.01
2023-05-01T21:33:01.001Z,8.76
2023-05-01T21:35:28.558Z,8.79
2023-05-01T21:37:55.474Z,8.81
2023-05-01T21:40:22.211Z,8.86
2023-05-01T21:42:48.990Z,8.79
2023-05-01T21:45:18.425Z,8.62
2023-05-01T21:47:47.978Z,8.65
2023-05-01T21:50:16.313Z,8.68
2023-05-01T21:52:44.205Z,8.70
2023-05-01T21:55:17.570Z,8.47
2023-05-01T21:57:44.621Z,8.46
2023-05-01T22:00:12.548Z,8.84
2023-05-01T22:02:44.481Z,8.65
2023-05-01T22:05:13.035Z,8.84
2023-05-01T22:07:47.121Z,8.96
2023-05-01T22:10:17.392Z,9.04
2023-05-01T22:12:44.966Z,8.69
2023-05-01T22:15:12.715Z,8.32
2023-05-01T22:36:06.015Z,8.71
2023-05-01T22:38:34.273Z,8.37
2023-05-01T22:41:00.956Z,8.39
2023-05-01T22:43:27.674Z,8.51
2023-05-01T22:45:54.432Z,8.52
2023-05-01T22:48:21.272Z,8.30
2023-05-01T22:50:48.162Z,8.27
2023-05-01T22:53:14.902Z,8.00
2023-05-01T22:55:41.731Z,7.97
2023-05-01T22:58:08.513Z,7.77
2023-05-01T23:00:35.197Z,7.60
2023-05-01T23:03:02.056Z,7.50
2023-05-01T23:05:29.484Z,7.44
2023-05-01T23:07:56.220Z,7.22
2023-05-01T23:10:24.491Z,7.03
2023-05-01T23:12:51.229Z,6.99
2023-05-01T23:15:23.374Z,7.00
2023-05-01T23:17:50.718Z,6.84
2023-05-01T23:20:24.693Z,6.58
2023-05-01T23:22:51.828Z,6.45
2023-05-01T23:25:24.506Z,6.50
2023-05-01T23:27:52.721Z,6.48
2023-05-01T23:30:22.870Z,6.28
2023-05-01T23:32:49.654Z,6.61
2023-05-01T23:35:24.007Z,6.93
2023-05-01T23:37:53.009Z,6.77
2023-05-01T23:40:19.940Z,6.47
2023-05-01T23:42:46.834Z,6.41
2023-05-01T23:45:13.565Z,6.40
2023-05-01T23:47:40.962Z,6.46
2023-05-01T23:50:08.061Z,6.43
2023-05-01T23:52:35.172Z,6.25
2023-05-01T23:55:01.835Z,6.53
2023-05-01T23:57:28.578Z,6.46
2023-05-01T23:59:55.577Z,6.42
